Kylertown, PA (16847)

1:18 AM EST on February 12, 2016 (GMT -0500)
Winburne | | Change Station
CLOSE
Current Station
Personal Weather Station
Location: Winburne, PA
Elevation: 1457 ft
Nearby Weather Stations

Elev 1457 ft 40.96 °N, 78.14 °W | Updated 9 minutes ago

Partly Cloudy
Partly Cloudy
-1.1 °F
Feels Like -1 °F
N
0.0
Wind Variable Wind from West

Today
High -- | Low -- °F
--% Chance of Precip.
Yesterday
High -- | Low -- °F
Precip. -- in
Pressure 30.27 in
Visibility 10.0 miles
Clouds Scattered Clouds 3500 ft
Windchill -1 °F
Dew Point -3 °F
Humidity 92%
Rainfall 0.00 in
Snow Depth Not available.
7:11 AM 5:42 PM
Waxing Crescent, 18% visible
METAR KFIG 120554Z AUTO 23004KT 10SM SCT035 M14/M17 A3018 RMK AO2 SLP250 T11391167 11106 21139 53001
Pressure 30.27 in
Visibility 10.0 miles
Clouds Scattered Clouds 3500 ft
Windchill -1 °F
Dew Point -3 °F
Humidity 92%
Rainfall 0.00 in
Snow Depth Not available.
7:11 AM 5:42 PM
Waxing Crescent, 18% visible
METAR KFIG 120554Z AUTO 23004KT 10SM SCT035 M14/M17 A3018 RMK AO2 SLP250 T11391167 11106 21139 53001

10-Day Weather Forecast

Almanac

Astronomy

Feb. 12, 2016 Rise Set
Actual Time
Civil Twilight
Nautical Twilight
Astronomical Twilight
Moon
Length of Visible Light
Length of Day
Tomorrow will be .
, % of the Moon is Illuminated

Today's Extremes

State Highs State Lows

Community

WunderPhotos

Upload Photos

1,892,273 photos uploaded!

WunderBlog® & News

Nearby

Air Quality

  Air Quality AQ Index Pollutant
Not available.

Snow Depth

Station Depth Elevation

Earthquake Activity

City Distance Mag. Time & Date
Minimum magnitude displayed is 2.5.

Coastal Water Temperatures

Place Temperature

Stations

Nearby Weather Stations

Station Location Temp. Windchill Dew Point Humidity Wind Precip. Elev Updated Type
                   

Watches & Warnings

There are currently no watches in effect.